Time;durP1;ratioP1;P1;durP2;ratioP2;P2;SDS_P1;SDS_P2;PMS_P1;PMS_P2;Temp;Humidity;BMP_temperature;BMP_pressure;BME280_temperature;BME280_humidity;BME280_pressure;Samples;Min_cycle;Max_cycle;Signal;HPM_P1;HPM_P2
2022/03/09 00:01:14;;;;;;;18.03;13.93;;;-1.00;99.90;;;;;;4939866;29;20507;-77
2022/03/09 00:03:42;;;;;;;16.07;13.03;;;-1.00;99.90;;;;;;4939548;29;20438;-79
2022/03/09 00:06:09;;;;;;;15.60;13.30;;;-1.00;99.90;;;;;;4939421;29;20440;-78
2022/03/09 00:08:35;;;;;;;17.03;13.90;;;-1.00;99.90;;;;;;4939336;29;20448;-77
2022/03/09 00:11:02;;;;;;;16.37;13.80;;;-1.10;99.90;;;;;;4939313;29;20466;-77
2022/03/09 00:13:30;;;;;;;18.23;13.30;;;-1.10;99.90;;;;;;4931294;29;20443;-77
2022/03/09 00:15:57;;;;;;;18.70;14.27;;;-1.10;99.90;;;;;;4939081;29;20482;-78
2022/03/09 00:18:24;;;;;;;16.73;14.03;;;-1.10;99.90;;;;;;4939101;29;20535;-77
2022/03/09 00:20:51;;;;;;;18.47;14.30;;;-1.10;99.90;;;;;;4939910;29;20455;-76
2022/03/09 00:23:18;;;;;;;19.70;14.20;;;-1.10;99.90;;;;;;4938884;29;20949;-78
2022/03/09 00:25:45;;;;;;;21.10;15.03;;;-1.10;99.90;;;;;;4938694;29;20499;-77
2022/03/09 00:28:12;;;;;;;18.27;14.23;;;-1.10;99.90;;;;;;4939269;29;20438;-79
2022/03/09 00:30:40;;;;;;;15.30;13.57;;;-1.10;99.90;;;;;;4939269;29;20811;-77
2022/03/09 00:33:07;;;;;;;19.47;13.43;;;-1.10;99.90;;;;;;4938531;29;20896;-79
2022/03/09 00:35:34;;;;;;;15.83;13.07;;;-1.10;99.90;;;;;;4939027;29;20443;-78
2022/03/09 00:38:00;;;;;;;16.93;14.00;;;-1.20;99.90;;;;;;4938794;29;20502;-78
2022/03/09 00:40:27;;;;;;;18.27;13.90;;;-1.20;99.90;;;;;;4938452;29;20451;-77
2022/03/09 00:42:57;;;;;;;16.70;12.73;;;-1.30;99.90;;;;;;4939533;29;20467;-78
2022/03/09 00:45:24;;;;;;;17.10;13.27;;;-1.40;99.90;;;;;;4938449;29;20949;-76
2022/03/09 00:47:52;;;;;;;16.73;12.70;;;-1.40;99.90;;;;;;4938447;29;20439;-77
2022/03/09 00:50:19;;;;;;;17.93;13.13;;;-1.50;99.90;;;;;;4938798;29;20439;-77
2022/03/09 00:52:47;;;;;;;16.67;13.33;;;-1.50;99.90;;;;;;4938856;29;20469;-77
2022/03/09 00:55:14;;;;;;;17.80;12.83;;;-1.50;99.90;;;;;;4938559;29;20889;-77
2022/03/09 00:57:42;;;;;;;16.80;13.60;;;-1.50;99.90;;;;;;4938145;29;20479;-77
2022/03/09 01:00:10;;;;;;;20.07;13.80;;;-1.50;99.90;;;;;;4934900;29;20471;-78
2022/03/09 01:02:41;;;;;;;18.40;13.40;;;-1.50;99.90;;;;;;5000399;23;20507;-77
2022/03/09 01:05:11;;;;;;;19.20;13.70;;;-1.50;99.90;;;;;;5008501;28;20487;-77
2022/03/09 01:07:38;;;;;;;16.37;13.00;;;-1.50;99.90;;;;;;4980112;28;20468;-77
2022/03/09 01:10:06;;;;;;;14.90;12.83;;;-1.50;99.90;;;;;;5004469;28;20506;-76
2022/03/09 01:12:33;;;;;;;14.50;11.77;;;-1.60;99.90;;;;;;4996056;28;20460;-75
2022/03/09 01:15:00;;;;;;;14.50;12.67;;;-1.60;99.90;;;;;;4980483;28;20460;-77
2022/03/09 01:17:27;;;;;;;15.30;13.30;;;-1.60;99.90;;;;;;4996767;28;20484;-76
2022/03/09 01:19:54;;;;;;;18.83;13.70;;;-1.70;99.90;;;;;;4986126;28;20889;-76
2022/03/09 01:22:22;;;;;;;15.83;12.97;;;-1.80;99.90;;;;;;4996446;28;20477;-76
2022/03/09 01:24:49;;;;;;;16.77;13.73;;;-1.90;99.90;;;;;;4999767;28;20442;-76
2022/03/09 01:27:16;;;;;;;14.83;12.23;;;-1.90;99.90;;;;;;5001188;28;20925;-77
2022/03/09 01:29:43;;;;;;;17.73;13.60;;;-1.90;99.90;;;;;;4979896;28;20527;-77
2022/03/09 01:32:10;;;;;;;17.83;13.90;;;-2.00;99.90;;;;;;5002520;28;20506;-77
2022/03/09 01:34:37;;;;;;;19.67;14.37;;;-2.00;99.90;;;;;;4977794;28;20519;-77
2022/03/09 01:37:04;;;;;;;18.37;14.47;;;-2.00;99.90;;;;;;4986693;28;20479;-77
2022/03/09 01:39:32;;;;;;;18.47;14.93;;;-2.00;99.90;;;;;;4996621;28;20441;-76
2022/03/09 01:41:59;;;;;;;16.37;14.17;;;-2.00;99.90;;;;;;5003209;28;20463;-77
2022/03/09 01:44:26;;;;;;;17.60;14.53;;;-2.00;99.90;;;;;;4986164;28;20444;-77
2022/03/09 01:46:55;;;;;;;19.43;14.90;;;-2.00;99.90;;;;;;4995980;28;20460;-77
2022/03/09 01:49:23;;;;;;;19.67;15.33;;;-2.00;99.90;;;;;;4983230;28;20965;-76
2022/03/09 01:51:53;;;;;;;15.90;13.37;;;-1.90;99.90;;;;;;4996123;28;20472;-76
2022/03/09 01:54:20;;;;;;;17.67;13.77;;;-1.90;99.90;;;;;;5000104;28;20439;-77
2022/03/09 01:56:49;;;;;;;18.27;13.33;;;-1.90;99.90;;;;;;4992993;28;20510;-76
2022/03/09 01:59:16;;;;;;;19.77;14.73;;;-2.00;99.90;;;;;;4981327;28;20498;-76
2022/03/09 02:01:44;;;;;;;15.93;14.10;;;-2.00;99.90;;;;;;4974849;28;20898;-77
2022/03/09 02:04:11;;;;;;;18.73;14.27;;;-2.00;99.90;;;;;;4977460;28;20452;-77
2022/03/09 02:06:39;;;;;;;17.30;13.50;;;-2.00;99.90;;;;;;4977149;28;21356;-76
2022/03/09 02:11:55;;;;;;;16.43;13.27;;;-2.00;99.90;;;;;;4999671;28;20474;-77
2022/03/09 02:14:31;;;;;;;18.87;14.00;;;-2.10;99.90;;;;;;4979313;28;20969;-77
2022/03/09 02:16:59;;;;;;;18.13;14.83;;;-2.10;99.90;;;;;;4974302;28;20480;-77
2022/03/09 02:19:26;;;;;;;19.57;14.50;;;-2.00;99.90;;;;;;4997528;28;20557;-77
2022/03/09 02:21:57;;;;;;;16.73;13.70;;;-2.00;99.90;;;;;;4998052;28;21020;-77
2022/03/09 02:24:26;;;;;;;20.30;14.33;;;-2.10;99.90;;;;;;4974828;28;20459;-77
2022/03/09 02:26:53;;;;;;;16.83;13.93;;;-2.10;99.90;;;;;;4992014;28;20432;-77
2022/03/09 02:29:20;;;;;;;18.83;14.93;;;-2.20;99.90;;;;;;4979710;28;20491;-77
2022/03/09 02:31:47;;;;;;;17.67;13.73;;;-2.20;99.90;;;;;;4998822;28;20980;-77
2022/03/09 02:34:13;;;;;;;20.27;16.40;;;-2.20;99.90;;;;;;4979161;28;20456;-76
2022/03/09 02:36:40;;;;;;;20.17;15.07;;;-2.30;99.90;;;;;;4991328;28;20921;-77
2022/03/09 02:39:07;;;;;;;17.97;14.63;;;-2.30;99.90;;;;;;4978936;28;20471;-77
2022/03/09 02:41:36;;;;;;;17.33;14.37;;;-2.30;99.90;;;;;;4993450;28;20460;-76
2022/03/09 02:44:04;;;;;;;18.40;14.13;;;-2.40;99.90;;;;;;4995252;28;20440;-77
2022/03/09 02:46:30;;;;;;;18.97;14.47;;;-2.40;99.90;;;;;;4990980;28;21024;-76
2022/03/09 02:48:57;;;;;;;19.90;14.73;;;-2.50;99.90;;;;;;5005518;28;20457;-77
2022/03/09 02:51:24;;;;;;;17.03;13.60;;;-2.40;99.90;;;;;;4994158;28;20961;-76
2022/03/09 02:53:51;;;;;;;19.03;14.50;;;-2.40;99.90;;;;;;4981495;28;20456;-76
2022/03/09 02:56:18;;;;;;;18.37;15.03;;;-2.40;99.90;;;;;;4975698;28;20966;-77
2022/03/09 02:58:46;;;;;;;18.80;14.53;;;-2.40;99.90;;;;;;4978298;28;20547;-77
2022/03/09 03:01:14;;;;;;;21.03;15.33;;;-2.40;99.90;;;;;;4979229;28;20463;-77
2022/03/09 03:03:41;;;;;;;16.17;13.93;;;-2.50;99.90;;;;;;4997205;28;20436;-77
2022/03/09 03:06:08;;;;;;;18.53;14.27;;;-2.60;99.90;;;;;;4998066;28;20501;-76
2022/03/09 03:08:35;;;;;;;20.83;14.93;;;-2.60;99.90;;;;;;4977124;28;20452;-77
2022/03/09 03:11:02;;;;;;;18.60;14.70;;;-2.60;99.90;;;;;;4977918;28;20452;-76
2022/03/09 03:13:29;;;;;;;17.50;14.87;;;-2.60;99.90;;;;;;4981557;28;20973;-77
2022/03/09 03:15:57;;;;;;;19.27;15.57;;;-2.60;99.90;;;;;;4976574;28;20456;-76
2022/03/09 03:18:24;;;;;;;20.90;15.07;;;-2.60;99.90;;;;;;4975355;28;20539;-77
2022/03/09 03:20:54;;;;;;;18.37;15.30;;;-2.60;99.90;;;;;;4993657;28;20443;-76
2022/03/09 03:23:23;;;;;;;21.57;16.30;;;-2.60;99.90;;;;;;4975144;28;20492;-76
2022/03/09 03:25:50;;;;;;;19.40;14.63;;;-2.60;99.90;;;;;;4978631;28;20449;-77
2022/03/09 03:28:18;;;;;;;18.17;14.77;;;-2.70;99.90;;;;;;4978402;28;20448;-77
2022/03/09 03:30:45;;;;;;;20.53;14.53;;;-2.60;99.90;;;;;;4977959;28;20447;-77
2022/03/09 03:33:15;;;;;;;17.43;14.73;;;-2.60;99.90;;;;;;4976320;28;20520;-76
2022/03/09 03:35:43;;;;;;;22.33;16.13;;;-2.60;99.90;;;;;;4980750;28;20456;-76
2022/03/09 03:38:10;;;;;;;19.10;14.90;;;-2.50;99.90;;;;;;4980610;28;20555;-76
2022/03/09 03:40:37;;;;;;;20.37;14.43;;;-2.60;99.90;;;;;;4999977;28;20498;-74
2022/03/09 03:43:05;;;;;;;19.00;14.40;;;-2.60;99.90;;;;;;4993040;28;20905;-75
2022/03/09 03:45:32;;;;;;;18.70;15.47;;;-2.70;99.90;;;;;;5011243;28;20435;-78
2022/03/09 03:47:59;;;;;;;20.33;15.70;;;-2.80;99.90;;;;;;4973245;28;20453;-76
2022/03/09 03:50:28;;;;;;;17.97;15.07;;;-2.90;99.90;;;;;;5012493;28;20454;-77
2022/03/09 03:52:54;;;;;;;21.90;15.70;;;-2.90;99.90;;;;;;5012074;28;20534;-77
2022/03/09 03:55:21;;;;;;;18.43;14.50;;;-2.90;99.90;;;;;;5009886;28;20460;-77
2022/03/09 03:57:48;;;;;;;19.87;16.00;;;-2.90;99.90;;;;;;4999722;28;20479;-79
2022/03/09 04:00:16;;;;;;;22.03;16.30;;;-2.90;99.90;;;;;;5000220;28;20452;-77
2022/03/09 04:02:43;;;;;;;19.00;14.50;;;-2.90;99.90;;;;;;4991268;28;20907;-78
2022/03/09 04:05:10;;;;;;;20.43;14.77;;;-2.90;99.90;;;;;;4994245;28;20847;-78
2022/03/09 04:07:38;;;;;;;18.03;14.77;;;-2.90;99.90;;;;;;5001181;28;20684;-77
2022/03/09 04:10:06;;;;;;;21.90;15.40;;;-2.90;99.90;;;;;;4994627;28;20433;-77
2022/03/09 04:12:32;;;;;;;22.03;15.10;;;-2.90;99.90;;;;;;4999579;28;20487;-77
2022/03/09 04:14:59;;;;;;;17.80;14.27;;;-2.90;99.90;;;;;;4990804;28;20862;-76
2022/03/09 04:17:26;;;;;;;19.23;14.40;;;-2.90;99.90;;;;;;5006830;28;20482;-78
2022/03/09 04:19:53;;;;;;;17.43;15.17;;;-3.00;99.90;;;;;;4993096;28;20458;-79
2022/03/09 04:22:20;;;;;;;18.40;14.63;;;-3.00;99.90;;;;;;5013300;28;20462;-77
2022/03/09 04:24:48;;;;;;;21.97;14.40;;;-3.00;99.90;;;;;;4981671;28;20452;-78
2022/03/09 04:27:15;;;;;;;17.60;12.27;;;-3.00;99.90;;;;;;5000038;28;20444;-78
2022/03/09 04:29:42;;;;;;;19.63;13.60;;;-3.10;99.90;;;;;;4999293;28;20464;-79
2022/03/09 04:32:09;;;;;;;17.03;11.97;;;-3.20;99.90;;;;;;4998796;28;20468;-78
2022/03/09 04:34:37;;;;;;;18.13;13.10;;;-3.30;99.90;;;;;;4984937;28;20455;-79
2022/03/09 04:37:04;;;;;;;18.17;12.73;;;-3.40;99.90;;;;;;5001786;28;20484;-79
2022/03/09 04:39:31;;;;;;;19.77;13.07;;;-3.40;99.90;;;;;;4985714;28;20452;-78
2022/03/09 04:41:59;;;;;;;18.17;13.30;;;-3.40;99.90;;;;;;5003171;28;20630;-78
2022/03/09 04:44:26;;;;;;;17.67;13.50;;;-3.40;99.90;;;;;;4981327;28;20462;-78
2022/03/09 04:46:53;;;;;;;18.47;12.90;;;-3.30;99.90;;;;;;4980774;28;21007;-79
2022/03/09 04:49:20;;;;;;;19.43;14.20;;;-3.30;99.90;;;;;;4997482;28;20964;-78
2022/03/09 04:51:46;;;;;;;19.90;13.53;;;-3.30;99.90;;;;;;4982679;28;20468;-78
2022/03/09 04:54:13;;;;;;;17.47;13.03;;;-3.30;99.90;;;;;;4984040;28;20522;-79
2022/03/09 04:56:41;;;;;;;18.73;13.57;;;-3.40;99.90;;;;;;4982978;28;20455;-79
2022/03/09 04:59:09;;;;;;;19.40;13.43;;;-3.40;99.90;;;;;;4984885;28;20841;-79
2022/03/09 05:01:36;;;;;;;18.73;13.07;;;-3.40;99.90;;;;;;4997768;28;20464;-78
2022/03/09 05:04:02;;;;;;;17.13;12.90;;;-3.40;99.90;;;;;;4999650;28;20451;-78
2022/03/09 05:06:29;;;;;;;18.80;14.23;;;-3.40;99.90;;;;;;4984802;28;20901;-78
2022/03/09 05:08:56;;;;;;;20.73;13.73;;;-3.30;99.90;;;;;;4998452;28;20833;-78
2022/03/09 05:11:23;;;;;;;18.63;14.20;;;-3.30;99.90;;;;;;4982462;28;20480;-78
2022/03/09 05:13:50;;;;;;;16.37;13.13;;;-3.30;99.90;;;;;;4981188;28;21039;-78
2022/03/09 05:16:18;;;;;;;21.23;13.50;;;-3.30;99.90;;;;;;4979948;28;20850;-78
2022/03/09 05:18:45;;;;;;;20.30;13.70;;;-3.40;99.90;;;;;;4982700;28;21035;-79
2022/03/09 05:21:12;;;;;;;24.47;14.40;;;-3.30;99.90;;;;;;4983120;28;20449;-79
2022/03/09 05:23:40;;;;;;;23.10;16.10;;;-3.30;99.90;;;;;;4983853;28;20463;-79
2022/03/09 05:26:07;;;;;;;18.67;14.67;;;-3.30;99.90;;;;;;4984770;28;20464;-79
2022/03/09 05:28:35;;;;;;;18.40;14.30;;;-3.40;99.90;;;;;;4998606;28;20974;-79
2022/03/09 05:31:01;;;;;;;18.53;14.43;;;-3.50;99.90;;;;;;4999401;28;20432;-79
2022/03/09 05:33:30;;;;;;;20.80;15.10;;;-3.60;99.90;;;;;;4985444;28;20474;-80
2022/03/09 05:35:57;;;;;;;19.07;15.57;;;-3.80;99.90;;;;;;4986100;28;20462;-79
2022/03/09 05:38:23;;;;;;;18.73;14.93;;;-3.80;99.90;;;;;;5006036;28;20844;-78
2022/03/09 05:40:50;;;;;;;21.77;15.57;;;-3.80;99.90;;;;;;4990090;28;20483;-78
2022/03/09 05:43:17;;;;;;;18.80;15.60;;;-3.90;99.90;;;;;;4987420;28;20468;-79
2022/03/09 05:45:44;;;;;;;20.63;14.90;;;-4.00;99.90;;;;;;4997442;28;20432;-79
2022/03/09 05:48:11;;;;;;;23.27;14.77;;;-4.00;99.90;;;;;;4995977;28;20427;-78
2022/03/09 05:50:39;;;;;;;19.63;14.60;;;-3.90;99.90;;;;;;4994518;28;20486;-78
2022/03/09 05:53:06;;;;;;;17.40;13.37;;;-3.90;99.90;;;;;;4982544;28;20876;-78
2022/03/09 05:55:33;;;;;;;24.90;15.37;;;-3.90;99.90;;;;;;4983331;28;20966;-79
2022/03/09 05:57:59;;;;;;;16.83;14.03;;;-3.80;99.90;;;;;;4983154;28;20471;-79
2022/03/09 06:00:26;;;;;;;19.33;13.43;;;-3.80;99.90;;;;;;4980102;28;20471;-78
2022/03/09 06:02:53;;;;;;;20.60;14.20;;;-3.70;99.90;;;;;;4979176;28;20493;-79
2022/03/09 06:05:20;;;;;;;20.93;15.80;;;-3.70;99.90;;;;;;4977718;28;20487;-78
2022/03/09 06:07:49;;;;;;;16.87;14.77;;;-3.60;99.90;;;;;;4979840;28;20448;-79
2022/03/09 06:10:16;;;;;;;22.07;16.07;;;-3.60;99.90;;;;;;4981478;28;20504;-79
2022/03/09 06:12:43;;;;;;;18.30;15.43;;;-3.50;99.90;;;;;;4981415;28;20473;-79
2022/03/09 06:15:10;;;;;;;19.27;15.77;;;-3.50;99.90;;;;;;4993805;28;20451;-78
2022/03/09 06:17:45;;;;;;;20.80;16.13;;;-3.50;99.90;;;;;;4995488;28;21206;-78
2022/03/09 06:20:13;;;;;;;21.93;16.53;;;-3.50;99.90;;;;;;4978476;28;20455;-79
2022/03/09 06:22:39;;;;;;;30.20;16.47;;;-3.50;99.90;;;;;;5000457;28;21036;-79
2022/03/09 06:25:09;;;;;;;22.73;15.60;;;-3.50;99.90;;;;;;4993561;28;20495;-78
2022/03/09 06:27:43;;;;;;;23.20;15.83;;;-3.50;99.90;;;;;;4975154;28;20539;-79
2022/03/09 06:30:12;;;;;;;19.37;15.70;;;-3.40;99.90;;;;;;4983837;28;20518;-77
2022/03/09 06:32:39;;;;;;;21.47;16.13;;;-3.20;99.90;;;;;;4996409;28;20511;-78
2022/03/09 06:35:07;;;;;;;25.57;16.63;;;-2.80;99.90;;;;;;4985751;28;20447;-79
2022/03/09 06:37:34;;;;;;;21.30;15.13;;;-2.40;99.90;;;;;;4976388;28;20464;-79
2022/03/09 06:40:01;;;;;;;21.00;14.87;;;-2.10;99.90;;;;;;4993495;28;20436;-79
2022/03/09 06:42:30;;;;;;;21.77;17.03;;;-1.70;99.90;;;;;;4975612;28;20553;-78
2022/03/09 06:44:57;;;;;;;23.07;16.87;;;-1.40;99.90;;;;;;4985868;28;20479;-79
2022/03/09 06:47:24;;;;;;;21.33;15.93;;;-1.00;99.90;;;;;;4984585;28;20452;-79
2022/03/09 06:49:51;;;;;;;19.90;15.40;;;-0.70;99.90;;;;;;4982874;28;20452;-79
2022/03/09 06:52:18;;;;;;;22.20;14.40;;;-0.30;99.90;;;;;;4983994;28;20495;-79
2022/03/09 06:54:45;;;;;;;20.27;14.33;;;-0.10;99.90;;;;;;4998342;28;20530;-79
2022/03/09 06:57:12;;;;;;;20.67;15.07;;;0.10;99.90;;;;;;4979034;28;20992;-80
2022/03/09 06:59:42;;;;;;;20.40;16.10;;;0.30;99.90;;;;;;4976585;28;20491;-79
2022/03/09 07:02:09;;;;;;;18.57;15.80;;;0.40;99.90;;;;;;5028547;23;20484;-79
2022/03/09 07:04:36;;;;;;;20.80;17.23;;;0.50;99.90;;;;;;5016137;28;20436;-77
2022/03/09 07:07:03;;;;;;;22.43;17.17;;;0.70;99.90;;;;;;4998857;28;20466;-78
2022/03/09 07:09:30;;;;;;;19.00;16.43;;;0.90;99.90;;;;;;4999235;28;20445;-77
2022/03/09 07:11:58;;;;;;;21.43;17.37;;;1.10;99.90;;;;;;4995262;28;20552;-79
2022/03/09 07:14:25;;;;;;;22.90;17.40;;;1.20;99.90;;;;;;4998099;28;20454;-79
2022/03/09 07:16:53;;;;;;;20.47;17.10;;;1.30;99.90;;;;;;5016880;28;20476;-78
2022/03/09 07:19:20;;;;;;;22.93;17.23;;;1.50;99.90;;;;;;4997688;28;20552;-78
2022/03/09 07:21:47;;;;;;;23.43;16.73;;;1.80;99.90;;;;;;5015217;28;20452;-77
2022/03/09 07:24:14;;;;;;;21.27;17.40;;;2.10;99.90;;;;;;5017029;28;20450;-78
2022/03/09 07:26:42;;;;;;;21.13;15.57;;;2.30;99.90;;;;;;5001462;28;20440;-78
2022/03/09 07:29:11;;;;;;;18.47;15.93;;;2.60;99.90;;;;;;5002215;28;20546;-79
2022/03/09 07:31:38;;;;;;;26.67;16.53;;;2.90;99.90;;;;;;5021294;28;20424;-79
2022/03/09 07:34:07;;;;;;;19.50;16.03;;;3.10;99.90;;;;;;5020688;28;20197;-78
2022/03/09 07:36:34;;;;;;;22.30;16.60;;;3.40;99.90;;;;;;5008590;28;20689;-78
2022/03/09 07:39:00;;;;;;;21.00;16.27;;;3.80;99.90;;;;;;5017316;28;20267;-78
2022/03/09 07:41:28;;;;;;;20.20;16.70;;;4.00;99.90;;;;;;5001533;28;20226;-77
2022/03/09 07:43:55;;;;;;;21.57;16.10;;;4.10;99.90;;;;;;5017400;28;20216;-78
2022/03/09 07:46:22;;;;;;;19.30;16.23;;;4.30;99.90;;;;;;5017138;28;20266;-78
2022/03/09 07:48:49;;;;;;;19.87;16.23;;;4.40;99.90;;;;;;5019243;28;20185;-79
2022/03/09 07:51:17;;;;;;;20.70;15.03;;;4.80;99.90;;;;;;4993166;28;20217;-78
2022/03/09 07:53:45;;;;;;;19.10;15.33;;;5.10;99.90;;;;;;5019430;28;20209;-78
2022/03/09 07:56:12;;;;;;;21.20;12.50;;;5.30;99.90;;;;;;5019424;28;20205;-79
2022/03/09 07:58:39;;;;;;;16.63;11.73;;;5.60;99.90;;;;;;4996401;28;20273;-78
2022/03/09 08:01:06;;;;;;;18.53;12.77;;;5.90;99.90;;;;;;5015280;28;20205;-77
2022/03/09 08:03:34;;;;;;;16.23;10.97;;;6.20;99.90;;;;;;4993521;28;20270;-78
2022/03/09 08:06:01;;;;;;;17.27;14.90;;;6.50;99.90;;;;;;5020050;28;20238;-78
2022/03/09 08:08:30;;;;;;;18.80;15.57;;;6.70;99.90;;;;;;5015695;28;20254;-77
2022/03/09 08:10:57;;;;;;;17.20;11.80;;;6.90;99.90;;;;;;5000516;28;20622;-79
2022/03/09 08:13:24;;;;;;;20.27;14.67;;;7.10;99.90;;;;;;4992959;28;20228;-79
2022/03/09 08:15:50;;;;;;;15.83;12.27;;;7.40;99.20;;;;;;5018937;28;20207;-77
2022/03/09 08:18:17;;;;;;;16.93;12.77;;;7.20;99.00;;;;;;5017357;28;20216;-79
2022/03/09 08:20:44;;;;;;;16.73;12.60;;;7.00;99.20;;;;;;5016391;28;20740;-78
2022/03/09 08:23:11;;;;;;;18.93;15.00;;;7.20;99.10;;;;;;5016954;28;20216;-78
2022/03/09 08:25:40;;;;;;;17.53;13.50;;;7.40;99.00;;;;;;5012309;28;20258;-78
2022/03/09 08:28:06;;;;;;;15.27;12.00;;;7.50;98.40;;;;;;5009822;28;20204;-78
2022/03/09 08:30:35;;;;;;;15.53;13.93;;;7.90;98.00;;;;;;5018094;28;20203;-78
2022/03/09 08:33:02;;;;;;;15.30;13.47;;;8.20;97.70;;;;;;5010168;28;20220;-78
2022/03/09 08:35:28;;;;;;;15.20;13.57;;;8.30;96.40;;;;;;5018540;28;20193;-78
2022/03/09 08:37:55;;;;;;;15.27;13.47;;;8.30;96.70;;;;;;5018009;28;20188;-78
2022/03/09 08:40:25;;;;;;;20.03;13.63;;;8.40;96.60;;;;;;5016848;28;20214;-78
2022/03/09 08:42:53;;;;;;;19.50;14.37;;;8.50;96.70;;;;;;5017119;28;20216;-79
2022/03/09 08:45:21;;;;;;;20.80;14.23;;;8.60;96.30;;;;;;5003045;28;20217;-77
2022/03/09 08:47:47;;;;;;;18.83;13.80;;;8.70;96.40;;;;;;5022269;28;20224;-77
2022/03/09 08:50:16;;;;;;;16.97;13.93;;;8.80;96.20;;;;;;5022946;28;20680;-78
2022/03/09 08:52:43;;;;;;;14.80;13.27;;;9.00;96.30;;;;;;5013368;28;20223;-77
2022/03/09 08:55:10;;;;;;;19.07;13.67;;;9.10;95.70;;;;;;5020486;28;20209;-78
2022/03/09 08:57:37;;;;;;;17.73;14.30;;;8.90;96.00;;;;;;5021069;28;20207;-78
2022/03/09 09:00:07;;;;;;;15.37;13.47;;;8.90;96.30;;;;;;5021438;28;20216;-78
2022/03/09 09:02:34;;;;;;;14.67;13.10;;;9.20;95.40;;;;;;5024034;28;20240;-78
2022/03/09 09:05:01;;;;;;;16.10;12.70;;;9.10;95.70;;;;;;5000614;28;20201;-78
2022/03/09 09:07:28;;;;;;;16.10;13.53;;;9.00;95.80;;;;;;5018941;28;20712;-77
2022/03/09 09:09:55;;;;;;;17.47;15.10;;;9.10;95.60;;;;;;5022010;28;20199;-77
2022/03/09 09:12:21;;;;;;;15.40;13.80;;;9.30;95.20;;;;;;5025259;28;20259;-78
2022/03/09 09:14:48;;;;;;;17.03;14.87;;;9.40;95.10;;;;;;5025444;28;20204;-77
2022/03/09 09:17:17;;;;;;;16.73;15.03;;;9.60;95.30;;;;;;5020232;28;20207;-79
2022/03/09 09:19:43;;;;;;;17.00;15.20;;;9.90;94.80;;;;;;5023389;28;20237;-78
2022/03/09 09:22:10;;;;;;;17.73;15.60;;;10.00;94.50;;;;;;5018281;28;20221;-78
2022/03/09 09:24:37;;;;;;;18.27;16.57;;;10.20;94.40;;;;;;5006452;28;20206;-78
2022/03/09 09:27:04;;;;;;;16.93;15.07;;;10.20;94.00;;;;;;5006338;28;20227;-79
2022/03/09 09:29:31;;;;;;;18.63;16.13;;;10.50;94.30;;;;;;4988395;28;20201;-79
2022/03/09 09:31:58;;;;;;;15.97;14.30;;;10.40;93.80;;;;;;5006371;28;20298;-77
2022/03/09 09:34:26;;;;;;;18.87;15.47;;;10.60;93.70;;;;;;5021247;28;20216;-78
2022/03/09 09:36:53;;;;;;;18.33;15.83;;;10.70;93.60;;;;;;5024185;28;20203;-77
2022/03/09 09:39:21;;;;;;;17.63;15.20;;;10.70;93.60;;;;;;5024939;28;20663;-77
2022/03/09 09:41:51;;;;;;;15.73;13.93;;;10.50;93.80;;;;;;5007907;28;20202;-78
2022/03/09 09:44:20;;;;;;;16.50;14.80;;;10.70;93.50;;;;;;5020871;28;20281;-77
2022/03/09 09:46:47;;;;;;;13.30;10.50;;;10.90;93.40;;;;;;5001212;28;20203;-78
2022/03/09 09:49:16;;;;;;;15.60;14.03;;;10.90;93.40;;;;;;5004835;28;20188;-79
2022/03/09 09:51:45;;;;;;;14.17;12.67;;;10.80;93.20;;;;;;4988890;28;20206;-78
2022/03/09 09:54:13;;;;;;;17.73;14.10;;;10.80;93.10;;;;;;5001226;28;20216;-78
2022/03/09 09:56:42;;;;;;;21.30;13.77;;;10.80;92.90;;;;;;5004419;28;20197;-78
2022/03/09 09:59:10;;;;;;;15.10;13.13;;;10.30;93.40;;;;;;5021980;28;20220;-77
2022/03/09 10:01:37;;;;;;;16.50;14.83;;;10.40;93.60;;;;;;5003879;28;20194;-78
2022/03/09 10:04:04;;;;;;;16.13;14.30;;;10.50;93.40;;;;;;5023402;28;20198;-79
2022/03/09 10:06:31;;;;;;;15.97;14.20;;;10.50;93.20;;;;;;5020300;28;20202;-78
2022/03/09 10:09:05;;;;;;;15.97;14.37;;;10.60;92.70;;;;;;5021665;28;20224;-78
2022/03/09 10:11:47;;;;;;;20.60;13.90;;;10.60;92.90;;;;;;5005916;28;20194;-78
2022/03/09 10:14:14;;;;;;;14.57;13.10;;;10.50;92.40;;;;;;5023588;28;20709;-77
2022/03/09 10:17:01;;;;;;;15.07;13.47;;;10.50;92.40;;;;;;4996884;28;20197;-78
2022/03/09 10:19:31;;;;;;;18.70;13.57;;;10.50;92.00;;;;;;5015557;28;20249;-77
2022/03/09 10:21:57;;;;;;;16.57;14.80;;;10.50;91.70;;;;;;5005774;28;20284;-78
2022/03/09 10:24:34;;;;;;;15.40;13.47;;;10.40;91.90;;;;;;5020555;28;20181;-79
2022/03/09 10:27:01;;;;;;;16.23;13.20;;;10.40;92.10;;;;;;5024293;28;20208;-78
2022/03/09 10:29:28;;;;;;;18.13;14.33;;;10.30;91.60;;;;;;5024574;28;20258;-78
2022/03/09 10:31:59;;;;;;;15.10;13.47;;;10.20;91.80;;;;;;5002096;28;20227;-77
2022/03/09 10:34:29;;;;;;;16.50;14.57;;;10.00;92.00;;;;;;4999840;28;20216;-76
2022/03/09 10:36:58;;;;;;;16.07;14.10;;;9.90;92.30;;;;;;4998879;28;20306;-79
2022/03/09 10:39:27;;;;;;;17.77;13.33;;;9.80;91.70;;;;;;5005701;28;20260;-78
2022/03/09 10:41:58;;;;;;;15.50;13.87;;;9.80;92.00;;;;;;4997771;28;20216;-78
2022/03/09 10:44:41;;;;;;;15.03;12.40;;;9.80;91.50;;;;;;5016606;28;20654;-78
2022/03/09 10:47:08;;;;;;;14.77;12.77;;;9.50;91.40;;;;;;5016677;28;20189;-77
2022/03/09 10:49:35;;;;;;;17.13;11.20;;;9.50;91.40;;;;;;5016165;28;20193;-79
2022/03/09 10:52:02;;;;;;;15.87;11.60;;;9.50;91.20;;;;;;4995916;28;20228;-78
2022/03/09 10:54:34;;;;;;;17.20;11.77;;;9.40;91.50;;;;;;5009107;28;20196;-79
2022/03/09 10:57:07;;;;;;;18.57;11.97;;;9.20;91.30;;;;;;5014988;28;20677;-77
2022/03/09 10:59:46;;;;;;;16.57;12.57;;;9.00;91.50;;;;;;5010686;28;20224;-77
2022/03/09 11:02:15;;;;;;;16.07;13.83;;;9.00;91.50;;;;;;5018985;28;20228;-77
2022/03/09 11:04:42;;;;;;;18.60;15.10;;;8.90;92.00;;;;;;5019758;28;20588;-77
2022/03/09 11:07:10;;;;;;;16.90;13.00;;;9.00;92.70;;;;;;4999715;28;20262;-79
2022/03/09 11:09:37;;;;;;;20.73;12.47;;;9.00;92.30;;;;;;5020536;28;20193;-78
2022/03/09 11:12:06;;;;;;;16.97;11.77;;;9.10;92.50;;;;;;5003327;28;20247;-78
2022/03/09 11:14:35;;;;;;;18.00;13.27;;;9.10;92.20;;;;;;5003386;28;20563;-78
2022/03/09 11:17:02;;;;;;;17.00;15.20;;;9.10;92.40;;;;;;5020000;28;20653;-77
2022/03/09 11:19:29;;;;;;;22.50;15.73;;;9.10;93.30;;;;;;5016926;28;20692;-79
2022/03/09 11:21:56;;;;;;;19.53;14.50;;;9.10;92.60;;;;;;5017690;28;20212;-78
2022/03/09 11:24:23;;;;;;;18.40;15.17;;;9.20;92.30;;;;;;5021204;28;20738;-78
2022/03/09 11:26:52;;;;;;;17.27;11.57;;;9.20;92.10;;;;;;5018915;28;20196;-77
2022/03/09 11:29:31;;;;;;;16.53;12.17;;;9.20;91.90;;;;;;5018738;28;20208;-79
2022/03/09 11:31:58;;;;;;;16.93;13.27;;;9.30;91.40;;;;;;5002816;28;20307;-80
2022/03/09 11:34:33;;;;;;;15.93;11.37;;;9.20;90.70;;;;;;5019265;28;20197;-77
2022/03/09 11:37:01;;;;;;;18.77;11.43;;;9.20;90.40;;;;;;5008141;28;20658;-79
2022/03/09 11:39:29;;;;;;;22.47;15.47;;;9.10;89.90;;;;;;4998651;28;20220;-77
2022/03/09 11:42:34;;;;;;;17.07;11.00;;;9.10;89.80;;;;;;5017501;28;20220;-78
2022/03/09 11:45:38;;;;;;;15.73;11.23;;;9.30;87.30;;;;;;4998262;28;20208;-78
2022/03/09 11:48:11;;;;;;;17.07;13.97;;;9.20;83.50;;;;;;5016405;28;20196;-78
2022/03/09 11:51:13;;;;;;;14.27;10.17;;;9.30;86.40;;;;;;5012723;28;20195;-78
2022/03/09 11:53:43;;;;;;;13.17;9.77;;;9.40;84.30;;;;;;4993407;28;20260;-78
2022/03/09 11:56:31;;;;;;;13.13;8.93;;;9.40;80.00;;;;;;5001433;28;20207;-78
2022/03/09 11:59:15;;;;;;;13.10;9.07;;;9.40;81.00;;;;;;5022805;28;20681;-78
2022/03/09 12:02:12;;;;;;;12.07;9.33;;;9.50;81.20;;;;;;5019535;28;20283;-79
2022/03/09 12:04:51;;;;;;;12.77;9.00;;;9.60;80.80;;;;;;5008581;28;20193;-77
2022/03/09 12:07:58;;;;;;;12.50;9.67;;;9.50;81.20;;;;;;5019404;28;20210;-78
2022/03/09 12:10:52;;;;;;;14.83;10.30;;;9.60;80.20;;;;;;5000773;28;20192;-78
2022/03/09 12:13:31;;;;;;;12.77;9.03;;;9.50;80.00;;;;;;5009995;28;20343;-78
2022/03/09 12:16:12;;;;;;;11.77;8.27;;;9.60;79.50;;;;;;5018980;28;20558;-78
2022/03/09 12:18:42;;;;;;;13.33;8.90;;;9.60;79.50;;;;;;5016006;28;20205;-78
2022/03/09 12:21:12;;;;;;;13.37;9.57;;;9.70;78.10;;;;;;5024523;28;20232;-78
2022/03/09 12:24:29;;;;;;;12.57;8.50;;;9.80;78.70;;;;;;5010354;28;20220;-78
2022/03/09 12:26:56;;;;;;;12.87;9.20;;;9.90;78.20;;;;;;5012494;28;20255;-78
2022/03/09 12:29:41;;;;;;;13.07;8.60;;;10.00;75.60;;;;;;5008915;28;20210;-77
2022/03/09 12:32:13;;;;;;;12.27;9.00;;;10.10;75.20;;;;;;5018067;28;20220;-78
2022/03/09 12:34:42;;;;;;;12.60;9.23;;;10.00;75.40;;;;;;5018398;28;20665;-77
2022/03/09 12:37:13;;;;;;;12.97;9.80;;;10.00;75.90;;;;;;5015367;28;20650;-78
2022/03/09 12:39:40;;;;;;;12.93;9.57;;;10.10;75.50;;;;;;5016027;28;20207;-77
2022/03/09 12:42:08;;;;;;;13.03;9.20;;;10.10;75.60;;;;;;5019312;28;20216;-79